ADDS METAR Data INFO
IDs: Format: Raw Decoded Include TAF

Data at: 1405 UTC 12 Dec 2017

KLCH 121353Z 35009KT 10SM CLR 11/02 A3024 RMK AO2 SLP248 T01060017
KLCH 121253Z 35008KT 10SM CLR 09/02 A3022 RMK AO2 SLP242 T00940017
KLCH 121153Z 33007KT 10SM CLR 09/03 A3019 RMK AO2 SLP232 T00940028 10117 20083 53019
KLCH 121053Z AUTO 33009KT 10SM CLR 10/04 A3017 RMK AO2 SLP224 T01000039
KLCH 120953Z AUTO 31005KT 10SM CLR 09/06 A3015 RMK AO2 SLP218 T00940061
KLCH 120853Z AUTO 27005KT 10SM CLR 11/07 A3014 RMK AO2 SLP213 T01060072 53002
KLCH 120753Z AUTO 26006KT 10SM CLR 11/08 A3013 RMK AO2 SLP211 T01110078
KLCH 120653Z AUTO 26005KT 10SM CLR 12/09 A3013 RMK AO2 SLP209 T01170089
KLCH 120553Z AUTO 26004KT 10SM CLR 11/09 A3013 RMK AO2 SLP211 T01110089 10139 20111 402170028 58013
KLCH 120453Z AUTO 25004KT 10SM CLR 12/09 A3015 RMK AO2 SLP217 T01170094
KLCH 120353Z AUTO 24007KT 10SM CLR 12/10 A3017 RMK AO2 SLP222 T01220100
KLCH 120253Z 24007KT 10SM CLR 13/10 A3017 RMK AO2 SLP225 T01280100 51006
KLCH 120153Z 24008KT 10SM CLR 13/09 A3017 RMK AO2 SLP223 T01330089
KLCH 120053Z 21005KT 10SM CLR 13/09 A3016 RMK AO2 SLP220 T01280094
KLCH 112353Z 21006KT 10SM CLR 14/11 A3015 RMK AO2 SLP218 T01390106 10217 20139 55004
KLCH 112253Z 20005KT 10SM CLR 17/11 A3014 RMK AO2 SLP215 T01670111
KLCH 112153Z 21007KT 10SM CLR 19/12 A3016 RMK AO2 SLP219 T01890117
KLCH 112053Z 22007KT 10SM CLR 22/05 A3017 RMK AO2 SLP222 T02170050 56030
KLCH 111953Z 22009KT 10SM CLR 21/05 A3018 RMK AO2 SLP229 T02060050
KLCH 111853Z 21007KT 10SM CLR 20/07 A3022 RMK AO2 SLP240 T02000067
KLCH 111753Z 23005KT 10SM CLR 19/06 A3025 RMK AO2 SLP252 T01890061 10189 20028 58022
KLCH 111653Z 25005KT 10SM CLR 16/07 A3029 RMK AO2 SLP264 T01610067
KLCH 111553Z 23006KT 10SM CLR 13/07 A3031 RMK AO2 SLP270 T01330067
KLCH 111453Z 25004KT 10SM CLR 11/07 A3032 RMK AO2 SLP274 T01060067 50004
KLCH 111353Z 23003KT 10SM CLR 07/05 A3032 RMK AO2 SLP276 T00720050
KLCH 111253Z 27003KT 10SM CLR 04/03 A3031 RMK AO2 SLP272 T00390033 $
KLCH 111153Z 26003KT 10SM CLR 03/03 A3031 RMK AO2 SLP270 T00280028 10067 20028 55006 $
KLCH 111053Z AUTO 00000KT 10SM CLR 04/03 A3030 RMK AO2 SLP269 T00440033 $
KLCH 110953Z AUTO 27004KT 10SM CLR 06/04 A3032 RMK AO2 SLP273 T00560044 $
KLCH 110853Z AUTO 25004KT 10SM CLR 06/05 A3033 RMK AO2 SLP277 T00610050 55005 $
KLCH 110753Z AUTO 27003KT 10SM CLR 05/04 A3032 RMK AO2 SLP276 T00500039 $
KLCH 110653Z AUTO 00000KT 10SM CLR 04/04 A3032 RMK AO2 SLP274 T00440039 $
KLCH 110553Z AUTO 00000KT 10SM CLR 06/04 A3034 RMK AO2 SLP281 T00560044 10106 20056 401670017 58007 $
KLCH 110453Z AUTO 26004KT 10SM CLR 08/05 A3035 RMK AO2 SLP286 T00830050 $
KLCH 110353Z 22003KT 10SM CLR 07/04 A3036 RMK AO2 SLP290 T00670044 $
KLCH 110253Z 25005KT 10SM CLR 09/05 A3036 RMK AO2 SLP288 T00940050 50004 $